createdAt,value
2023-01-08T00:03:41.753Z,9.40
2023-01-08T00:08:45.168Z,9.30
2023-01-08T00:13:47.365Z,9.30
2023-01-08T00:18:49.586Z,9.40
2023-01-08T00:23:51.821Z,9.30
2023-01-08T00:28:54.187Z,9.30
2023-01-08T00:33:56.365Z,9.30
2023-01-08T00:39:00.885Z,9.30
2023-01-08T00:44:03.133Z,9.30
2023-01-08T00:49:05.466Z,9.30
2023-01-08T00:54:07.777Z,9.20
2023-01-08T00:59:10.071Z,9.20
2023-01-08T01:04:12.460Z,9.20
2023-01-08T01:09:14.807Z,9.10
2023-01-08T01:14:17.096Z,9.10
2023-01-08T01:19:19.362Z,9.10
2023-01-08T01:24:25.038Z,9.10
2023-01-08T01:29:27.498Z,9.10
2023-01-08T01:34:33.245Z,9.20
2023-01-08T01:39:35.500Z,9.20
2023-01-08T01:44:46.073Z,9.20
2023-01-08T01:50:10.516Z,9.10
2023-01-08T01:55:13.962Z,8.90
2023-01-08T02:00:16.570Z,8.60
2023-01-08T02:05:19.535Z,8.60
2023-01-08T02:31:13.228Z,8.70
2023-01-08T02:41:58.489Z,9.10
2023-01-08T02:47:02.596Z,9.10
2023-01-08T02:52:07.039Z,9.20
2023-01-08T02:57:13.651Z,9.30
2023-01-08T03:02:17.020Z,9.30
2023-01-08T03:07:19.765Z,9.30
2023-01-08T03:12:30.310Z,9.30
2023-01-08T03:17:38.256Z,9.30
2023-01-08T03:22:44.222Z,9.30
2023-01-08T03:27:50.625Z,9.30
2023-01-08T03:32:55.907Z,9.30
2023-01-08T03:38:07.098Z,9.40
2023-01-08T03:43:09.585Z,9.40
2023-01-08T03:48:12.283Z,9.40
2023-01-08T03:53:14.525Z,9.40
2023-01-08T03:58:17.028Z,9.40
2023-01-08T04:03:19.842Z,9.40
2023-01-08T04:08:22.101Z,9.40
2023-01-08T04:13:24.347Z,9.30
2023-01-08T04:18:26.625Z,9.30
2023-01-08T04:23:28.917Z,9.30
2023-01-08T04:28:31.184Z,9.20
2023-01-08T04:33:34.148Z,9.10
2023-01-08T04:38:36.400Z,9.10
2023-01-08T04:43:38.670Z,9.00
2023-01-08T04:48:40.935Z,8.90
2023-01-08T04:53:43.254Z,8.90
2023-01-08T04:58:45.487Z,8.90
2023-01-08T05:03:48.316Z,8.90
2023-01-08T05:08:50.795Z,8.90
2023-01-08T05:13:53.589Z,9.00
2023-01-08T05:18:55.816Z,9.00
2023-01-08T05:23:58.085Z,9.00
2023-01-08T05:29:00.303Z,9.10
2023-01-08T05:34:02.555Z,9.10
2023-01-08T05:39:05.062Z,9.20
2023-01-08T05:44:07.266Z,9.30
2023-01-08T05:49:09.790Z,9.20
2023-01-08T05:54:12.037Z,9.00
2023-01-08T05:59:14.672Z,8.90
2023-01-08T06:04:17.006Z,9.00
2023-01-08T06:09:20.016Z,9.00
2023-01-08T06:14:22.243Z,8.90
2023-01-08T06:19:24.476Z,8.80
2023-01-08T06:24:26.724Z,8.90
2023-01-08T06:29:28.947Z,9.10
2023-01-08T06:34:31.245Z,9.20
2023-01-08T06:39:33.670Z,9.30
2023-01-08T06:44:35.938Z,9.50
2023-01-08T06:49:38.195Z,9.50
2023-01-08T06:54:40.748Z,9.60
2023-01-08T06:59:43.971Z,9.60
2023-01-08T07:04:46.238Z,9.50
2023-01-08T07:09:48.460Z,9.30
2023-01-08T07:14:50.720Z,9.30
2023-01-08T07:19:52.995Z,9.40
2023-01-08T07:24:55.329Z,9.40
2023-01-08T07:29:57.666Z,9.50
2023-01-08T07:34:59.929Z,9.70
2023-01-08T07:40:02.149Z,9.90
2023-01-08T07:45:05.100Z,10.10
2023-01-08T07:50:07.706Z,10.50
2023-01-08T07:55:10.099Z,10.80
2023-01-08T08:00:12.641Z,11.40
2023-01-08T08:05:14.989Z,11.80
2023-01-08T08:10:17.349Z,12.30
2023-01-08T08:15:19.558Z,12.60
2023-01-08T08:20:21.797Z,12.60
2023-01-08T08:25:23.975Z,13.10
2023-01-08T08:30:27.417Z,13.80
2023-01-08T08:35:30.920Z,14.50
2023-01-08T08:40:33.212Z,14.70
2023-01-08T08:45:35.963Z,15.40
2023-01-08T08:50:39.275Z,15.40
2023-01-08T08:55:41.497Z,15.70
2023-01-08T09:00:44.905Z,15.90
2023-01-08T09:05:47.148Z,16.30
2023-01-08T09:10:49.371Z,16.00
2023-01-08T09:15:51.676Z,15.90
2023-01-08T09:20:53.956Z,15.20
2023-01-08T09:26:05.546Z,14.90
2023-01-08T09:31:07.881Z,14.40
2023-01-08T09:36:12.233Z,14.10
2023-01-08T09:41:26.606Z,13.70
2023-01-08T09:46:29.937Z,13.50
2023-01-08T09:51:36.099Z,13.30
2023-01-08T09:56:38.448Z,12.70
2023-01-08T10:01:41.670Z,12.20
2023-01-08T10:06:52.995Z,12.00
2023-01-08T10:11:58.656Z,11.60
2023-01-08T10:17:23.129Z,11.50
2023-01-08T10:22:31.917Z,11.50
2023-01-08T10:27:45.627Z,11.00
2023-01-08T10:32:54.352Z,10.80
2023-01-08T10:37:57.118Z,10.60
2023-01-08T10:43:07.902Z,10.60
2023-01-08T10:48:18.517Z,10.50
2023-01-08T10:53:25.694Z,10.40
2023-01-08T10:58:29.584Z,10.30
2023-01-08T11:03:33.163Z,10.00
2023-01-08T11:08:36.460Z,10.00
2023-01-08T11:13:38.968Z,10.00
2023-01-08T11:18:48.944Z,10.20
2023-01-08T11:24:21.343Z,10.00
2023-01-08T11:29:41.415Z,10.30
2023-01-08T11:39:57.143Z,10.30
2023-01-08T11:50:20.836Z,10.30
2023-01-08T12:37:56.010Z,10.10
2023-01-08T12:43:02.177Z,9.70
2023-01-08T12:48:08.457Z,9.50
2023-01-08T12:53:50.574Z,9.70
2023-01-08T13:04:18.909Z,10.00
2023-01-08T13:09:25.994Z,10.20
2023-01-08T13:14:28.638Z,10.10
2023-01-08T13:19:41.725Z,9.90
2023-01-08T13:24:44.356Z,9.70
2023-01-08T13:29:49.222Z,9.80
2023-01-08T13:56:37.768Z,9.70
2023-01-08T14:01:40.196Z,9.70
2023-01-08T14:06:42.588Z,9.70
2023-01-08T14:11:48.357Z,9.70
2023-01-08T14:16:53.101Z,9.80
2023-01-08T14:21:58.392Z,9.90
2023-01-08T14:27:00.968Z,9.90
2023-01-08T14:32:03.320Z,9.90
2023-01-08T14:37:05.778Z,9.80
2023-01-08T14:42:35.558Z,9.50
2023-01-08T14:47:40.426Z,9.30
2023-01-08T14:52:42.762Z,9.20
2023-01-08T14:57:48.166Z,9.30
2023-01-08T15:02:50.533Z,9.10
2023-01-08T15:13:24.593Z,9.40
2023-01-08T15:18:27.328Z,9.40
2023-01-08T15:23:46.529Z,9.20
2023-01-08T15:34:00.524Z,9.20
2023-01-08T15:39:02.954Z,9.00
2023-01-08T15:44:05.561Z,8.80
2023-01-08T15:49:07.775Z,8.70
2023-01-08T15:54:13.132Z,8.50
2023-01-08T15:59:15.397Z,8.50
2023-01-08T16:04:17.661Z,8.50
2023-01-08T16:09:19.916Z,8.50
2023-01-08T16:14:22.153Z,8.50
2023-01-08T16:19:25.103Z,8.60
2023-01-08T16:24:27.455Z,8.60
2023-01-08T16:29:29.879Z,8.40
2023-01-08T16:34:32.737Z,8.30
2023-01-08T16:39:35.234Z,8.60
2023-01-08T16:44:37.612Z,8.50
2023-01-08T16:49:41.707Z,8.60
2023-01-08T16:54:45.571Z,8.70
2023-01-08T16:59:48.244Z,8.80
2023-01-08T17:04:50.429Z,8.70
2023-01-08T17:09:52.644Z,8.70
2023-01-08T17:14:54.993Z,8.60
2023-01-08T17:19:57.219Z,8.60
2023-01-08T17:24:59.770Z,8.70
2023-01-08T17:30:02.225Z,8.80
2023-01-08T17:35:05.975Z,8.90
2023-01-08T17:40:09.028Z,8.90
2023-01-08T17:45:11.551Z,8.80
2023-01-08T17:50:13.783Z,8.90
2023-01-08T17:55:16.027Z,8.70
2023-01-08T18:00:19.808Z,8.50
2023-01-08T18:05:22.059Z,8.60
2023-01-08T18:10:24.360Z,8.80
2023-01-08T18:15:26.604Z,8.80
2023-01-08T18:20:29.371Z,8.80
2023-01-08T18:25:31.626Z,8.90
2023-01-08T18:30:33.905Z,8.80
2023-01-08T18:35:36.133Z,8.80
2023-01-08T18:40:38.358Z,8.70
2023-01-08T18:45:41.358Z,8.80
2023-01-08T18:50:43.696Z,8.80
2023-01-08T18:55:46.400Z,8.70
2023-01-08T19:00:48.691Z,8.70
2023-01-08T19:05:51.017Z,8.60
2023-01-08T19:10:53.312Z,8.40
2023-01-08T19:15:55.556Z,8.30
2023-01-08T19:21:00.008Z,8.30
2023-01-08T19:26:07.201Z,8.40
2023-01-08T19:31:12.925Z,8.40
2023-01-08T19:36:16.669Z,8.40
2023-01-08T19:41:39.223Z,8.50
2023-01-08T19:46:41.515Z,8.50
2023-01-08T19:51:43.884Z,8.50
2023-01-08T19:56:46.136Z,8.50
2023-01-08T20:01:48.726Z,8.40
2023-01-08T20:06:52.516Z,8.20
2023-01-08T20:11:54.831Z,8.10
2023-01-08T20:16:57.392Z,8.30
2023-01-08T20:21:59.641Z,8.20
2023-01-08T20:27:01.896Z,8.10
2023-01-08T20:32:06.049Z,8.30
2023-01-08T20:37:08.435Z,8.20
2023-01-08T20:42:12.391Z,8.30
2023-01-08T20:47:19.490Z,8.40
2023-01-08T20:52:21.701Z,8.20
2023-01-08T20:57:23.941Z,8.00
2023-01-08T21:02:26.191Z,8.10
2023-01-08T21:07:29.949Z,8.10
2023-01-08T21:12:32.516Z,8.10
2023-01-08T21:17:35.408Z,8.20
2023-01-08T21:22:37.673Z,8.00
2023-01-08T21:27:39.944Z,8.10
2023-01-08T21:32:42.243Z,8.10
2023-01-08T21:37:44.737Z,8.00
2023-01-08T21:43:06.896Z,8.00
2023-01-08T21:48:09.253Z,8.00
2023-01-08T21:53:31.351Z,8.00
2023-01-08T21:58:33.727Z,8.10
2023-01-08T22:03:35.990Z,7.90
2023-01-08T22:08:38.339Z,7.90
2023-01-08T22:13:40.679Z,8.00
2023-01-08T22:18:43.010Z,7.90
2023-01-08T22:23:45.269Z,8.10
2023-01-08T22:28:47.522Z,8.10
2023-01-08T22:33:54.406Z,7.90
2023-01-08T22:38:57.013Z,8.00
2023-01-08T22:43:59.271Z,8.00
2023-01-08T22:49:01.618Z,7.80
2023-01-08T22:54:04.019Z,7.80
2023-01-08T22:59:06.258Z,7.80
2023-01-08T23:04:08.601Z,8.00
2023-01-08T23:09:11.023Z,8.10
2023-01-08T23:14:15.503Z,7.90
2023-01-08T23:19:17.820Z,7.70
2023-01-08T23:24:20.032Z,7.70
2023-01-08T23:29:22.762Z,7.70
2023-01-08T23:34:25.848Z,7.90
2023-01-08T23:39:28.365Z,7.80
2023-01-08T23:44:30.602Z,8.00
2023-01-08T23:49:34.686Z,8.10
2023-01-08T23:54:37.090Z,8.10
2023-01-08T23:59:39.315Z,7.90
